sensor_id;sensor_type;location;lat;lon;timestamp;P1;durP1;ratioP1;P2;durP2;ratioP2
14394;SDS011;7282;49.204;10.652;2023-06-24T00:02:16;6.63;;;5.97;;
14394;SDS011;7282;49.204;10.652;2023-06-24T00:04:43;6.90;;;6.30;;
14394;SDS011;7282;49.204;10.652;2023-06-24T00:07:09;6.67;;;5.90;;
14394;SDS011;7282;49.204;10.652;2023-06-24T00:09:36;7.07;;;6.33;;
14394;SDS011;7282;49.204;10.652;2023-06-24T00:12:03;7.10;;;6.40;;
14394;SDS011;7282;49.204;10.652;2023-06-24T00:14:30;7.53;;;6.50;;
14394;SDS011;7282;49.204;10.652;2023-06-24T00:16:58;7.20;;;6.60;;
14394;SDS011;7282;49.204;10.652;2023-06-24T00:19:25;6.80;;;6.20;;
14394;SDS011;7282;49.204;10.652;2023-06-24T00:21:52;6.57;;;5.97;;
14394;SDS011;7282;49.204;10.652;2023-06-24T00:24:20;6.20;;;5.53;;
14394;SDS011;7282;49.204;10.652;2023-06-24T00:26:47;7.97;;;7.17;;
14394;SDS011;7282;49.204;10.652;2023-06-24T00:29:14;6.63;;;6.03;;
14394;SDS011;7282;49.204;10.652;2023-06-24T00:31:41;7.77;;;6.97;;
14394;SDS011;7282;49.204;10.652;2023-06-24T00:34:08;7.37;;;6.70;;
14394;SDS011;7282;49.204;10.652;2023-06-24T00:36:34;6.77;;;6.17;;
14394;SDS011;7282;49.204;10.652;2023-06-24T00:39:04;8.27;;;6.70;;
14394;SDS011;7282;49.204;10.652;2023-06-24T00:41:35;7.63;;;6.87;;
14394;SDS011;7282;49.204;10.652;2023-06-24T00:44:02;7.20;;;6.60;;
14394;SDS011;7282;49.204;10.652;2023-06-24T00:46:29;7.73;;;7.03;;
14394;SDS011;7282;49.204;10.652;2023-06-24T00:48:59;7.13;;;6.53;;
14394;SDS011;7282;49.204;10.652;2023-06-24T00:51:27;8.17;;;7.40;;
14394;SDS011;7282;49.204;10.652;2023-06-24T00:53:57;8.03;;;7.23;;
14394;SDS011;7282;49.204;10.652;2023-06-24T00:56:30;7.90;;;6.83;;
14394;SDS011;7282;49.204;10.652;2023-06-24T00:58:57;8.57;;;7.63;;
14394;SDS011;7282;49.204;10.652;2023-06-24T01:01:32;7.80;;;7.00;;
14394;SDS011;7282;49.204;10.652;2023-06-24T01:03:57;7.87;;;7.17;;
14394;SDS011;7282;49.204;10.652;2023-06-24T01:06:24;7.77;;;7.07;;
14394;SDS011;7282;49.204;10.652;2023-06-24T01:08:53;8.10;;;7.33;;
14394;SDS011;7282;49.204;10.652;2023-06-24T01:11:22;8.40;;;7.63;;
14394;SDS011;7282;49.204;10.652;2023-06-24T01:13:50;8.03;;;7.33;;
14394;SDS011;7282;49.204;10.652;2023-06-24T01:16:24;8.37;;;7.67;;
14394;SDS011;7282;49.204;10.652;2023-06-24T01:18:51;7.30;;;6.60;;
14394;SDS011;7282;49.204;10.652;2023-06-24T01:23:48;8.90;;;8.00;;
14394;SDS011;7282;49.204;10.652;2023-06-24T01:26:21;9.50;;;8.53;;
14394;SDS011;7282;49.204;10.652;2023-06-24T01:31:27;8.73;;;7.83;;
14394;SDS011;7282;49.204;10.652;2023-06-24T01:36:38;9.27;;;8.37;;
14394;SDS011;7282;49.204;10.652;2023-06-24T01:39:08;9.00;;;8.20;;
14394;SDS011;7282;49.204;10.652;2023-06-24T01:41:41;9.13;;;8.27;;
14394;SDS011;7282;49.204;10.652;2023-06-24T01:44:17;8.47;;;7.67;;
14394;SDS011;7282;49.204;10.652;2023-06-24T01:46:41;10.40;;;8.17;;
14394;SDS011;7282;49.204;10.652;2023-06-24T01:49:09;9.37;;;8.47;;
14394;SDS011;7282;49.204;10.652;2023-06-24T01:51:36;10.33;;;9.33;;
14394;SDS011;7282;49.204;10.652;2023-06-24T01:54:07;8.83;;;7.83;;
14394;SDS011;7282;49.204;10.652;2023-06-24T01:56:35;8.47;;;7.77;;
14394;SDS011;7282;49.204;10.652;2023-06-24T01:59:03;8.87;;;8.00;;
14394;SDS011;7282;49.204;10.652;2023-06-24T02:01:32;9.77;;;8.77;;
14394;SDS011;7282;49.204;10.652;2023-06-24T02:03:59;9.97;;;9.07;;
14394;SDS011;7282;49.204;10.652;2023-06-24T02:06:26;9.43;;;8.53;;
14394;SDS011;7282;49.204;10.652;2023-06-24T02:08:54;9.63;;;8.73;;
14394;SDS011;7282;49.204;10.652;2023-06-24T02:11:24;10.03;;;9.13;;
14394;SDS011;7282;49.204;10.652;2023-06-24T02:13:53;9.87;;;8.87;;
14394;SDS011;7282;49.204;10.652;2023-06-24T02:16:21;9.80;;;8.90;;
14394;SDS011;7282;49.204;10.652;2023-06-24T02:18:48;9.90;;;8.90;;
14394;SDS011;7282;49.204;10.652;2023-06-24T02:21:21;9.87;;;8.87;;
14394;SDS011;7282;49.204;10.652;2023-06-24T02:23:45;9.90;;;8.90;;
14394;SDS011;7282;49.204;10.652;2023-06-24T02:26:12;8.83;;;7.83;;
14394;SDS011;7282;49.204;10.652;2023-06-24T02:28:39;10.40;;;9.30;;
14394;SDS011;7282;49.204;10.652;2023-06-24T02:31:07;10.10;;;9.13;;
14394;SDS011;7282;49.204;10.652;2023-06-24T02:33:35;9.40;;;8.60;;
14394;SDS011;7282;49.204;10.652;2023-06-24T02:36:02;10.67;;;9.57;;
14394;SDS011;7282;49.204;10.652;2023-06-24T02:38:28;9.90;;;8.93;;
14394;SDS011;7282;49.204;10.652;2023-06-24T02:40:55;10.33;;;9.27;;
14394;SDS011;7282;49.204;10.652;2023-06-24T02:43:22;9.10;;;8.20;;
14394;SDS011;7282;49.204;10.652;2023-06-24T02:45:49;9.33;;;8.43;;
14394;SDS011;7282;49.204;10.652;2023-06-24T02:48:16;8.90;;;8.00;;
14394;SDS011;7282;49.204;10.652;2023-06-24T02:50:44;9.50;;;8.50;;
14394;SDS011;7282;49.204;10.652;2023-06-24T02:53:12;10.53;;;9.63;;
14394;SDS011;7282;49.204;10.652;2023-06-24T02:55:39;10.80;;;9.70;;
14394;SDS011;7282;49.204;10.652;2023-06-24T02:58:07;10.47;;;9.43;;
14394;SDS011;7282;49.204;10.652;2023-06-24T03:00:35;10.60;;;9.60;;
14394;SDS011;7282;49.204;10.652;2023-06-24T03:03:02;10.97;;;9.87;;
14394;SDS011;7282;49.204;10.652;2023-06-24T03:05:30;9.97;;;9.07;;
14394;SDS011;7282;49.204;10.652;2023-06-24T03:07:58;10.87;;;9.87;;
14394;SDS011;7282;49.204;10.652;2023-06-24T03:10:26;10.60;;;9.20;;
14394;SDS011;7282;49.204;10.652;2023-06-24T03:12:52;10.17;;;9.13;;
14394;SDS011;7282;49.204;10.652;2023-06-24T03:15:19;10.20;;;9.20;;
14394;SDS011;7282;49.204;10.652;2023-06-24T03:17:46;10.13;;;9.13;;
14394;SDS011;7282;49.204;10.652;2023-06-24T03:20:13;12.97;;;9.30;;
14394;SDS011;7282;49.204;10.652;2023-06-24T03:22:40;9.33;;;8.43;;
14394;SDS011;7282;49.204;10.652;2023-06-24T03:25:07;9.40;;;8.50;;
14394;SDS011;7282;49.204;10.652;2023-06-24T03:27:34;11.80;;;10.27;;
14394;SDS011;7282;49.204;10.652;2023-06-24T03:30:01;10.07;;;9.17;;
14394;SDS011;7282;49.204;10.652;2023-06-24T03:32:27;11.00;;;9.90;;
14394;SDS011;7282;49.204;10.652;2023-06-24T03:34:54;11.30;;;10.30;;
14394;SDS011;7282;49.204;10.652;2023-06-24T03:37:21;11.00;;;10.00;;
14394;SDS011;7282;49.204;10.652;2023-06-24T03:39:47;11.00;;;9.90;;
14394;SDS011;7282;49.204;10.652;2023-06-24T03:42:14;11.67;;;10.57;;
14394;SDS011;7282;49.204;10.652;2023-06-24T03:44:41;12.27;;;11.07;;
14394;SDS011;7282;49.204;10.652;2023-06-24T03:47:07;11.30;;;10.20;;
14394;SDS011;7282;49.204;10.652;2023-06-24T03:49:34;11.73;;;10.60;;
14394;SDS011;7282;49.204;10.652;2023-06-24T03:52:01;11.57;;;10.50;;
14394;SDS011;7282;49.204;10.652;2023-06-24T03:54:28;11.53;;;10.40;;
14394;SDS011;7282;49.204;10.652;2023-06-24T03:56:54;11.43;;;10.33;;
14394;SDS011;7282;49.204;10.652;2023-06-24T03:59:21;11.43;;;10.33;;
14394;SDS011;7282;49.204;10.652;2023-06-24T04:01:48;12.00;;;10.80;;
14394;SDS011;7282;49.204;10.652;2023-06-24T04:04:16;11.73;;;10.53;;
14394;SDS011;7282;49.204;10.652;2023-06-24T04:06:47;11.73;;;10.10;;
14394;SDS011;7282;49.204;10.652;2023-06-24T04:09:11;12.40;;;11.30;;
14394;SDS011;7282;49.204;10.652;2023-06-24T04:11:38;11.13;;;9.90;;
14394;SDS011;7282;49.204;10.652;2023-06-24T04:14:05;10.73;;;9.63;;
14394;SDS011;7282;49.204;10.652;2023-06-24T04:16:32;10.80;;;9.70;;
14394;SDS011;7282;49.204;10.652;2023-06-24T04:18:59;11.17;;;9.97;;
14394;SDS011;7282;49.204;10.652;2023-06-24T04:21:26;10.50;;;9.50;;
14394;SDS011;7282;49.204;10.652;2023-06-24T04:23:52;9.80;;;8.90;;
14394;SDS011;7282;49.204;10.652;2023-06-24T04:26:19;10.03;;;9.03;;
14394;SDS011;7282;49.204;10.652;2023-06-24T04:28:46;9.60;;;8.70;;
14394;SDS011;7282;49.204;10.652;2023-06-24T04:31:12;10.20;;;9.30;;
14394;SDS011;7282;49.204;10.652;2023-06-24T04:33:40;9.87;;;8.87;;
14394;SDS011;7282;49.204;10.652;2023-06-24T04:36:06;10.10;;;9.17;;
14394;SDS011;7282;49.204;10.652;2023-06-24T04:38:33;9.30;;;8.50;;
14394;SDS011;7282;49.204;10.652;2023-06-24T04:41:00;10.00;;;9.10;;
14394;SDS011;7282;49.204;10.652;2023-06-24T04:43:26;10.13;;;9.23;;
14394;SDS011;7282;49.204;10.652;2023-06-24T04:45:56;10.03;;;9.13;;
14394;SDS011;7282;49.204;10.652;2023-06-24T04:48:23;9.57;;;8.67;;
14394;SDS011;7282;49.204;10.652;2023-06-24T04:50:50;9.93;;;9.03;;
14394;SDS011;7282;49.204;10.652;2023-06-24T04:53:19;9.00;;;8.20;;
14394;SDS011;7282;49.204;10.652;2023-06-24T04:55:46;9.87;;;8.87;;
14394;SDS011;7282;49.204;10.652;2023-06-24T04:58:12;9.20;;;8.40;;
14394;SDS011;7282;49.204;10.652;2023-06-24T05:00:39;11.00;;;9.83;;
14394;SDS011;7282;49.204;10.652;2023-06-24T05:03:06;12.63;;;10.60;;
14394;SDS011;7282;49.204;10.652;2023-06-24T05:05:32;10.20;;;9.27;;
14394;SDS011;7282;49.204;10.652;2023-06-24T05:07:59;11.00;;;10.00;;
14394;SDS011;7282;49.204;10.652;2023-06-24T05:10:26;10.07;;;9.17;;
14394;SDS011;7282;49.204;10.652;2023-06-24T05:12:52;9.33;;;8.53;;
14394;SDS011;7282;49.204;10.652;2023-06-24T05:15:19;10.90;;;9.90;;
14394;SDS011;7282;49.204;10.652;2023-06-24T05:17:46;11.40;;;10.40;;
14394;SDS011;7282;49.204;10.652;2023-06-24T05:20:13;10.20;;;9.20;;
14394;SDS011;7282;49.204;10.652;2023-06-24T05:22:39;10.23;;;9.03;;
14394;SDS011;7282;49.204;10.652;2023-06-24T05:25:06;10.00;;;9.00;;
14394;SDS011;7282;49.204;10.652;2023-06-24T05:27:33;9.50;;;8.60;;
14394;SDS011;7282;49.204;10.652;2023-06-24T05:30:00;9.47;;;8.23;;
14394;SDS011;7282;49.204;10.652;2023-06-24T05:32:26;8.50;;;7.70;;
14394;SDS011;7282;49.204;10.652;2023-06-24T05:34:53;8.97;;;8.07;;
14394;SDS011;7282;49.204;10.652;2023-06-24T05:37:20;9.27;;;8.37;;
14394;SDS011;7282;49.204;10.652;2023-06-24T05:39:46;9.80;;;8.80;;
14394;SDS011;7282;49.204;10.652;2023-06-24T05:42:13;10.83;;;8.60;;
14394;SDS011;7282;49.204;10.652;2023-06-24T05:44:40;9.07;;;8.27;;
14394;SDS011;7282;49.204;10.652;2023-06-24T05:47:06;9.40;;;8.50;;
14394;SDS011;7282;49.204;10.652;2023-06-24T05:49:33;9.33;;;8.40;;
14394;SDS011;7282;49.204;10.652;2023-06-24T05:52:00;8.53;;;7.73;;
14394;SDS011;7282;49.204;10.652;2023-06-24T05:54:31;9.60;;;8.53;;
14394;SDS011;7282;49.204;10.652;2023-06-24T05:56:55;8.70;;;7.90;;
14394;SDS011;7282;49.204;10.652;2023-06-24T05:59:22;9.67;;;8.77;;
14394;SDS011;7282;49.204;10.652;2023-06-24T06:01:48;8.03;;;7.33;;
14394;SDS011;7282;49.204;10.652;2023-06-24T06:04:15;8.17;;;7.47;;
14394;SDS011;7282;49.204;10.652;2023-06-24T06:06:42;9.03;;;8.13;;
14394;SDS011;7282;49.204;10.652;2023-06-24T06:09:09;8.70;;;7.80;;
14394;SDS011;7282;49.204;10.652;2023-06-24T06:11:35;7.53;;;6.87;;
14394;SDS011;7282;49.204;10.652;2023-06-24T06:14:02;8.07;;;7.27;;
14394;SDS011;7282;49.204;10.652;2023-06-24T06:16:29;8.73;;;7.20;;
14394;SDS011;7282;49.204;10.652;2023-06-24T06:18:55;7.40;;;6.70;;
14394;SDS011;7282;49.204;10.652;2023-06-24T06:21:22;7.70;;;7.00;;
14394;SDS011;7282;49.204;10.652;2023-06-24T06:23:49;7.87;;;7.13;;
14394;SDS011;7282;49.204;10.652;2023-06-24T06:26:15;6.93;;;6.33;;
14394;SDS011;7282;49.204;10.652;2023-06-24T06:28:42;7.30;;;6.60;;
14394;SDS011;7282;49.204;10.652;2023-06-24T06:31:09;7.77;;;6.97;;
14394;SDS011;7282;49.204;10.652;2023-06-24T06:33:35;7.30;;;6.60;;
14394;SDS011;7282;49.204;10.652;2023-06-24T06:36:02;7.77;;;6.97;;
14394;SDS011;7282;49.204;10.652;2023-06-24T06:38:29;6.47;;;5.87;;
14394;SDS011;7282;49.204;10.652;2023-06-24T06:40:56;6.70;;;6.10;;
14394;SDS011;7282;49.204;10.652;2023-06-24T06:43:22;6.83;;;6.13;;
14394;SDS011;7282;49.204;10.652;2023-06-24T06:45:49;5.73;;;5.23;;
14394;SDS011;7282;49.204;10.652;2023-06-24T06:48:16;5.90;;;5.40;;
14394;SDS011;7282;49.204;10.652;2023-06-24T06:50:42;5.20;;;4.80;;
14394;SDS011;7282;49.204;10.652;2023-06-24T06:53:09;5.17;;;4.70;;
14394;SDS011;7282;49.204;10.652;2023-06-24T06:55:36;5.60;;;4.97;;
14394;SDS011;7282;49.204;10.652;2023-06-24T06:58:05;6.33;;;5.63;;
14394;SDS011;7282;49.204;10.652;2023-06-24T07:00:32;6.50;;;5.90;;
14394;SDS011;7282;49.204;10.652;2023-06-24T07:02:58;6.13;;;5.30;;
14394;SDS011;7282;49.204;10.652;2023-06-24T07:05:25;6.00;;;5.40;;
14394;SDS011;7282;49.204;10.652;2023-06-24T07:07:52;6.30;;;5.67;;
14394;SDS011;7282;49.204;10.652;2023-06-24T07:10:19;5.97;;;5.40;;
14394;SDS011;7282;49.204;10.652;2023-06-24T07:12:46;5.90;;;5.40;;
14394;SDS011;7282;49.204;10.652;2023-06-24T07:15:13;5.67;;;4.90;;
14394;SDS011;7282;49.204;10.652;2023-06-24T07:17:40;5.10;;;4.70;;
14394;SDS011;7282;49.204;10.652;2023-06-24T07:20:07;5.10;;;4.60;;
14394;SDS011;7282;49.204;10.652;2023-06-24T07:22:34;4.90;;;4.50;;
14394;SDS011;7282;49.204;10.652;2023-06-24T07:25:01;6.17;;;4.73;;
14394;SDS011;7282;49.204;10.652;2023-06-24T07:27:28;5.53;;;4.93;;
14394;SDS011;7282;49.204;10.652;2023-06-24T07:29:55;5.17;;;4.67;;
14394;SDS011;7282;49.204;10.652;2023-06-24T07:32:21;5.00;;;4.60;;
14394;SDS011;7282;49.204;10.652;2023-06-24T07:34:48;5.73;;;5.03;;
14394;SDS011;7282;49.204;10.652;2023-06-24T07:37:15;5.83;;;5.30;;
14394;SDS011;7282;49.204;10.652;2023-06-24T07:39:42;5.70;;;5.20;;
14394;SDS011;7282;49.204;10.652;2023-06-24T07:42:09;5.60;;;5.10;;
14394;SDS011;7282;49.204;10.652;2023-06-24T07:44:35;5.43;;;4.93;;
14394;SDS011;7282;49.204;10.652;2023-06-24T07:47:04;5.80;;;5.23;;
14394;SDS011;7282;49.204;10.652;2023-06-24T07:49:32;5.50;;;4.87;;
14394;SDS011;7282;49.204;10.652;2023-06-24T07:51:58;5.03;;;4.63;;
14394;SDS011;7282;49.204;10.652;2023-06-24T07:54:25;5.47;;;4.90;;
14394;SDS011;7282;49.204;10.652;2023-06-24T07:56:52;5.90;;;5.27;;
14394;SDS011;7282;49.204;10.652;2023-06-24T07:59:18;5.03;;;4.53;;
14394;SDS011;7282;49.204;10.652;2023-06-24T08:01:45;5.27;;;4.87;;
14394;SDS011;7282;49.204;10.652;2023-06-24T08:04:12;5.03;;;4.53;;
14394;SDS011;7282;49.204;10.652;2023-06-24T08:06:39;5.30;;;4.80;;
14394;SDS011;7282;49.204;10.652;2023-06-24T08:09:06;5.50;;;4.70;;
14394;SDS011;7282;49.204;10.652;2023-06-24T08:11:32;5.80;;;5.20;;
14394;SDS011;7282;49.204;10.652;2023-06-24T08:13:59;6.10;;;5.50;;
14394;SDS011;7282;49.204;10.652;2023-06-24T08:16:27;5.00;;;4.50;;
14394;SDS011;7282;49.204;10.652;2023-06-24T08:18:54;6.67;;;5.97;;
14394;SDS011;7282;49.204;10.652;2023-06-24T08:21:21;6.33;;;5.73;;
14394;SDS011;7282;49.204;10.652;2023-06-24T08:23:48;6.53;;;5.43;;
14394;SDS011;7282;49.204;10.652;2023-06-24T08:26:16;5.53;;;5.10;;
14394;SDS011;7282;49.204;10.652;2023-06-24T08:28:43;5.87;;;5.17;;
14394;SDS011;7282;49.204;10.652;2023-06-24T08:31:09;5.40;;;4.90;;
14394;SDS011;7282;49.204;10.652;2023-06-24T08:33:36;5.80;;;5.30;;
14394;SDS011;7282;49.204;10.652;2023-06-24T08:36:03;6.57;;;5.97;;
14394;SDS011;7282;49.204;10.652;2023-06-24T08:38:30;5.60;;;5.10;;
14394;SDS011;7282;49.204;10.652;2023-06-24T08:40:56;6.23;;;5.63;;
14394;SDS011;7282;49.204;10.652;2023-06-24T08:43:25;7.87;;;5.90;;
14394;SDS011;7282;49.204;10.652;2023-06-24T08:45:51;6.07;;;5.57;;
14394;SDS011;7282;49.204;10.652;2023-06-24T08:48:18;6.07;;;5.40;;
14394;SDS011;7282;49.204;10.652;2023-06-24T08:50:46;5.97;;;5.37;;
14394;SDS011;7282;49.204;10.652;2023-06-24T08:53:14;6.07;;;5.27;;
14394;SDS011;7282;49.204;10.652;2023-06-24T08:55:43;5.97;;;5.47;;
14394;SDS011;7282;49.204;10.652;2023-06-24T08:58:09;6.03;;;5.47;;
14394;SDS011;7282;49.204;10.652;2023-06-24T09:00:36;6.43;;;5.83;;
14394;SDS011;7282;49.204;10.652;2023-06-24T09:03:03;6.80;;;5.10;;
14394;SDS011;7282;49.204;10.652;2023-06-24T09:05:30;6.00;;;4.77;;
14394;SDS011;7282;49.204;10.652;2023-06-24T09:07:56;5.97;;;5.43;;
14394;SDS011;7282;49.204;10.652;2023-06-24T09:10:30;5.60;;;5.10;;
14394;SDS011;7282;49.204;10.652;2023-06-24T09:12:59;5.70;;;4.83;;
14394;SDS011;7282;49.204;10.652;2023-06-24T09:15:29;5.07;;;4.57;;
14394;SDS011;7282;49.204;10.652;2023-06-24T09:17:55;5.00;;;4.60;;
14394;SDS011;7282;49.204;10.652;2023-06-24T09:20:21;4.73;;;4.30;;
14394;SDS011;7282;49.204;10.652;2023-06-24T09:22:49;4.63;;;4.23;;
14394;SDS011;7282;49.204;10.652;2023-06-24T09:25:17;4.50;;;4.07;;
14394;SDS011;7282;49.204;10.652;2023-06-24T09:27:50;5.53;;;4.70;;
14394;SDS011;7282;49.204;10.652;2023-06-24T09:30:18;4.90;;;4.50;;
14394;SDS011;7282;49.204;10.652;2023-06-24T09:32:47;4.77;;;4.37;;
14394;SDS011;7282;49.204;10.652;2023-06-24T09:35:14;4.73;;;4.33;;
14394;SDS011;7282;49.204;10.652;2023-06-24T09:37:41;4.87;;;4.47;;
14394;SDS011;7282;49.204;10.652;2023-06-24T09:40:08;4.40;;;4.00;;
14394;SDS011;7282;49.204;10.652;2023-06-24T09:42:36;4.53;;;3.63;;
14394;SDS011;7282;49.204;10.652;2023-06-24T09:45:06;4.10;;;3.70;;
14394;SDS011;7282;49.204;10.652;2023-06-24T09:47:33;3.80;;;3.50;;
14394;SDS011;7282;49.204;10.652;2023-06-24T09:49:59;4.40;;;4.00;;
14394;SDS011;7282;49.204;10.652;2023-06-24T09:52:26;4.70;;;3.50;;
14394;SDS011;7282;49.204;10.652;2023-06-24T09:54:54;3.57;;;3.27;;
14394;SDS011;7282;49.204;10.652;2023-06-24T09:57:23;3.90;;;3.60;;
14394;SDS011;7282;49.204;10.652;2023-06-24T09:59:49;3.63;;;3.33;;
14394;SDS011;7282;49.204;10.652;2023-06-24T10:02:16;3.87;;;3.57;;
14394;SDS011;7282;49.204;10.652;2023-06-24T10:04:44;3.80;;;3.50;;
14394;SDS011;7282;49.204;10.652;2023-06-24T10:07:13;3.73;;;3.43;;
14394;SDS011;7282;49.204;10.652;2023-06-24T10:09:40;3.97;;;3.60;;
14394;SDS011;7282;49.204;10.652;2023-06-24T10:12:07;4.13;;;3.67;;
14394;SDS011;7282;49.204;10.652;2023-06-24T10:14:34;4.10;;;3.70;;
14394;SDS011;7282;49.204;10.652;2023-06-24T10:17:06;4.03;;;3.63;;
14394;SDS011;7282;49.204;10.652;2023-06-24T10:19:30;4.30;;;3.90;;
14394;SDS011;7282;49.204;10.652;2023-06-24T10:21:59;4.23;;;3.87;;
14394;SDS011;7282;49.204;10.652;2023-06-24T10:24:29;4.20;;;3.80;;
14394;SDS011;7282;49.204;10.652;2023-06-24T10:27:03;4.10;;;3.70;;
14394;SDS011;7282;49.204;10.652;2023-06-24T10:29:36;4.33;;;3.93;;
14394;SDS011;7282;49.204;10.652;2023-06-24T10:32:04;4.50;;;4.10;;
14394;SDS011;7282;49.204;10.652;2023-06-24T10:34:38;4.73;;;3.63;;
14394;SDS011;7282;49.204;10.652;2023-06-24T10:37:10;3.73;;;3.43;;
14394;SDS011;7282;49.204;10.652;2023-06-24T10:39:37;3.90;;;3.60;;
14394;SDS011;7282;49.204;10.652;2023-06-24T10:44:46;3.70;;;3.40;;
14394;SDS011;7282;49.204;10.652;2023-06-24T10:47:12;3.80;;;3.50;;
14394;SDS011;7282;49.204;10.652;2023-06-24T10:49:39;4.20;;;3.80;;
14394;SDS011;7282;49.204;10.652;2023-06-24T10:52:09;3.83;;;3.53;;
14394;SDS011;7282;49.204;10.652;2023-06-24T10:54:39;3.40;;;3.10;;
14394;SDS011;7282;49.204;10.652;2023-06-24T10:57:11;3.60;;;3.30;;
14394;SDS011;7282;49.204;10.652;2023-06-24T10:59:35;3.87;;;3.57;;
14394;SDS011;7282;49.204;10.652;2023-06-24T11:02:02;3.60;;;3.30;;
14394;SDS011;7282;49.204;10.652;2023-06-24T11:04:28;3.50;;;3.20;;
14394;SDS011;7282;49.204;10.652;2023-06-24T11:06:58;3.77;;;3.47;;
14394;SDS011;7282;49.204;10.652;2023-06-24T11:09:25;4.33;;;3.77;;
14394;SDS011;7282;49.204;10.652;2023-06-24T11:11:52;3.70;;;3.40;;
14394;SDS011;7282;49.204;10.652;2023-06-24T11:14:22;3.70;;;3.40;;
14394;SDS011;7282;49.204;10.652;2023-06-24T11:16:49;3.90;;;3.53;;
14394;SDS011;7282;49.204;10.652;2023-06-24T11:19:16;3.77;;;3.47;;
14394;SDS011;7282;49.204;10.652;2023-06-24T11:21:42;3.50;;;3.20;;
14394;SDS011;7282;49.204;10.652;2023-06-24T11:24:10;4.20;;;3.40;;
14394;SDS011;7282;49.204;10.652;2023-06-24T11:26:37;4.13;;;3.43;;
14394;SDS011;7282;49.204;10.652;2023-06-24T11:29:10;3.53;;;3.23;;
14394;SDS011;7282;49.204;10.652;2023-06-24T11:31:37;4.63;;;3.47;;
14394;SDS011;7282;49.204;10.652;2023-06-24T11:34:04;4.13;;;3.33;;
14394;SDS011;7282;49.204;10.652;2023-06-24T11:36:30;4.30;;;3.90;;
14394;SDS011;7282;49.204;10.652;2023-06-24T11:38:57;4.00;;;3.60;;
14394;SDS011;7282;49.204;10.652;2023-06-24T11:41:24;4.17;;;3.50;;
14394;SDS011;7282;49.204;10.652;2023-06-24T11:43:52;3.53;;;3.23;;
14394;SDS011;7282;49.204;10.652;2023-06-24T11:46:25;3.53;;;3.23;;
14394;SDS011;7282;49.204;10.652;2023-06-24T11:48:50;3.60;;;3.30;;
14394;SDS011;7282;49.204;10.652;2023-06-24T11:51:16;3.60;;;3.20;;
14394;SDS011;7282;49.204;10.652;2023-06-24T11:53:44;3.63;;;3.33;;
14394;SDS011;7282;49.204;10.652;2023-06-24T11:56:12;3.70;;;3.40;;
14394;SDS011;7282;49.204;10.652;2023-06-24T11:58:39;4.13;;;3.70;;
14394;SDS011;7282;49.204;10.652;2023-06-24T12:01:08;3.43;;;3.00;;
14394;SDS011;7282;49.204;10.652;2023-06-24T12:03:35;4.20;;;3.80;;
14394;SDS011;7282;49.204;10.652;2023-06-24T12:06:02;4.00;;;3.43;;
14394;SDS011;7282;49.204;10.652;2023-06-24T12:08:29;3.50;;;3.20;;
14394;SDS011;7282;49.204;10.652;2023-06-24T12:10:55;3.53;;;3.23;;
14394;SDS011;7282;49.204;10.652;2023-06-24T12:13:22;3.80;;;3.50;;
14394;SDS011;7282;49.204;10.652;2023-06-24T12:15:49;3.67;;;3.27;;
14394;SDS011;7282;49.204;10.652;2023-06-24T12:18:16;3.23;;;3.00;;
14394;SDS011;7282;49.204;10.652;2023-06-24T12:20:42;3.47;;;3.17;;
14394;SDS011;7282;49.204;10.652;2023-06-24T12:23:09;3.53;;;3.23;;
14394;SDS011;7282;49.204;10.652;2023-06-24T12:25:36;3.73;;;3.30;;
14394;SDS011;7282;49.204;10.652;2023-06-24T12:28:02;3.40;;;3.20;;
14394;SDS011;7282;49.204;10.652;2023-06-24T12:30:29;3.40;;;3.10;;
14394;SDS011;7282;49.204;10.652;2023-06-24T12:32:56;3.40;;;3.10;;
14394;SDS011;7282;49.204;10.652;2023-06-24T12:35:23;3.50;;;3.20;;
14394;SDS011;7282;49.204;10.652;2023-06-24T12:37:51;3.87;;;3.47;;
14394;SDS011;7282;49.204;10.652;2023-06-24T12:40:18;3.30;;;3.00;;
14394;SDS011;7282;49.204;10.652;2023-06-24T12:42:45;3.87;;;3.20;;
14394;SDS011;7282;49.204;10.652;2023-06-24T12:45:12;3.03;;;2.83;;
14394;SDS011;7282;49.204;10.652;2023-06-24T12:47:39;3.40;;;3.10;;
14394;SDS011;7282;49.204;10.652;2023-06-24T12:50:06;4.13;;;3.37;;
14394;SDS011;7282;49.204;10.652;2023-06-24T12:52:33;3.47;;;3.17;;
14394;SDS011;7282;49.204;10.652;2023-06-24T12:55:00;3.70;;;3.40;;
14394;SDS011;7282;49.204;10.652;2023-06-24T12:57:27;3.30;;;3.00;;
14394;SDS011;7282;49.204;10.652;2023-06-24T12:59:53;3.37;;;3.10;;
14394;SDS011;7282;49.204;10.652;2023-06-24T13:02:20;3.70;;;3.40;;
14394;SDS011;7282;49.204;10.652;2023-06-24T13:04:47;3.47;;;3.17;;
14394;SDS011;7282;49.204;10.652;2023-06-24T13:07:13;4.30;;;3.30;;
14394;SDS011;7282;49.204;10.652;2023-06-24T13:09:40;3.53;;;3.23;;
14394;SDS011;7282;49.204;10.652;2023-06-24T13:12:07;4.30;;;3.30;;
14394;SDS011;7282;49.204;10.652;2023-06-24T13:14:34;3.57;;;3.27;;
14394;SDS011;7282;49.204;10.652;2023-06-24T13:17:01;3.60;;;3.30;;
14394;SDS011;7282;49.204;10.652;2023-06-24T13:19:28;4.03;;;3.10;;
14394;SDS011;7282;49.204;10.652;2023-06-24T13:21:55;3.70;;;3.40;;
14394;SDS011;7282;49.204;10.652;2023-06-24T13:24:21;3.47;;;3.17;;
14394;SDS011;7282;49.204;10.652;2023-06-24T13:26:48;3.50;;;3.20;;
14394;SDS011;7282;49.204;10.652;2023-06-24T13:29:15;3.57;;;3.20;;
14394;SDS011;7282;49.204;10.652;2023-06-24T13:31:41;3.17;;;2.87;;
14394;SDS011;7282;49.204;10.652;2023-06-24T13:34:08;4.70;;;3.40;;
14394;SDS011;7282;49.204;10.652;2023-06-24T13:36:35;3.40;;;3.20;;
14394;SDS011;7282;49.204;10.652;2023-06-24T13:39:03;3.10;;;2.90;;
14394;SDS011;7282;49.204;10.652;2023-06-24T13:41:30;3.43;;;3.13;;
14394;SDS011;7282;49.204;10.652;2023-06-24T13:43:59;3.70;;;3.40;;
14394;SDS011;7282;49.204;10.652;2023-06-24T13:46:26;3.27;;;3.07;;
14394;SDS011;7282;49.204;10.652;2023-06-24T13:48:52;3.37;;;3.07;;
14394;SDS011;7282;49.204;10.652;2023-06-24T13:51:19;3.50;;;3.17;;
14394;SDS011;7282;49.204;10.652;2023-06-24T13:53:52;3.43;;;3.13;;
14394;SDS011;7282;49.204;10.652;2023-06-24T13:56:16;4.13;;;3.10;;
14394;SDS011;7282;49.204;10.652;2023-06-24T13:58:42;3.00;;;2.80;;
14394;SDS011;7282;49.204;10.652;2023-06-24T14:01:09;4.37;;;3.47;;
14394;SDS011;7282;49.204;10.652;2023-06-24T14:03:36;3.50;;;3.20;;
14394;SDS011;7282;49.204;10.652;2023-06-24T14:06:03;4.40;;;3.30;;
14394;SDS011;7282;49.204;10.652;2023-06-24T14:08:30;3.70;;;3.40;;
14394;SDS011;7282;49.204;10.652;2023-06-24T14:10:58;3.97;;;3.43;;
14394;SDS011;7282;49.204;10.652;2023-06-24T14:13:25;3.70;;;3.40;;
14394;SDS011;7282;49.204;10.652;2023-06-24T14:15:53;4.03;;;3.47;;
14394;SDS011;7282;49.204;10.652;2023-06-24T14:18:19;3.57;;;3.27;;
14394;SDS011;7282;49.204;10.652;2023-06-24T14:20:46;3.70;;;3.40;;
14394;SDS011;7282;49.204;10.652;2023-06-24T14:23:13;3.60;;;3.30;;
14394;SDS011;7282;49.204;10.652;2023-06-24T14:25:39;3.70;;;3.30;;
14394;SDS011;7282;49.204;10.652;2023-06-24T14:28:06;3.57;;;3.27;;
14394;SDS011;7282;49.204;10.652;2023-06-24T14:30:33;3.67;;;3.37;;
14394;SDS011;7282;49.204;10.652;2023-06-24T14:33:02;3.23;;;2.93;;
14394;SDS011;7282;49.204;10.652;2023-06-24T14:35:29;3.37;;;2.90;;
14394;SDS011;7282;49.204;10.652;2023-06-24T14:37:55;3.40;;;3.10;;
14394;SDS011;7282;49.204;10.652;2023-06-24T14:40:22;3.77;;;3.13;;
14394;SDS011;7282;49.204;10.652;2023-06-24T14:42:49;3.80;;;2.93;;
14394;SDS011;7282;49.204;10.652;2023-06-24T14:45:15;3.30;;;3.00;;
14394;SDS011;7282;49.204;10.652;2023-06-24T14:47:42;3.40;;;3.10;;
14394;SDS011;7282;49.204;10.652;2023-06-24T14:50:09;3.77;;;3.33;;
14394;SDS011;7282;49.204;10.652;2023-06-24T14:52:36;3.43;;;3.13;;
14394;SDS011;7282;49.204;10.652;2023-06-24T14:55:02;3.60;;;3.30;;
14394;SDS011;7282;49.204;10.652;2023-06-24T14:57:29;5.83;;;3.60;;